Flugplatz Berlin-Schönefeld International

Bericht für EDDB

vom 18.01. um 17:20 UTC

Wind 8 kt aus 230°

Sichtweite 10 km oder mehr

gute Sicht, keine Wolken < 5000 ft, keine CB, keine Wettererscheinungen (CAVOK)

Temperatur 4.0°C

Taupunkt 1.0°C

Luftfeuchtigkeit 81%

Luftdruck 1023 hPa

keine wesentliche Wetteränderung innerhalb den nächsten 2 Stunden zu erwarten

EDDB 181720Z 23008KT CAVOK 04/01 Q1023 NOSIG

Prognose für EDDB

vom 18.01. um 00:00 UTC

Zwischen 00:00 UTC und 00:00 UTC

Wind 7 kt aus 230°

Sichtweite 10 km oder mehr

aufgebrochene Bewölkung in 3000 ft


Am 19.01. zwischen 00:00 UTC und 00:00 UTC zeitweise

aufgebrochene Bewölkung in 1000 ft


Am 19.01. zwischen 00:00 UTC und 00:00 UTC zeitweise mit einer Wahrscheinlichkeit von 30%

aufgebrochene Bewölkung in 800 ft


Am 19.01. zwischen 00:00 und 00:00 UTC übergehend zu

Wind 7 kt aus 290°

Sichtweite 10 km oder mehr

aufgebrochene Bewölkung in 3000 ft

TAF EDDB 181700Z 1818/1918 23007KT 9999 BKN030 TEMPO 1900/1910 BKN010 PROB30 TEMPO 1901/1908 BKN008 BECMG 1908/1910 29007KT
Impressum